sensor_id;sensor_type;location;lat;lon;timestamp;pressure;altitude;pressure_sealevel;temperature;humidity
12666;BME280;58531;59.050;17.416;2023-03-26T00:00:14;99234.91;;;-2.82;100.00
12666;BME280;58531;59.050;17.416;2023-03-26T00:02:43;99228.19;;;-2.83;100.00
12666;BME280;58531;59.050;17.416;2023-03-26T00:05:11;99230.00;;;-2.80;100.00
12666;BME280;58531;59.050;17.416;2023-03-26T00:07:39;99227.03;;;-2.79;100.00
12666;BME280;58531;59.050;17.416;2023-03-26T00:10:07;99227.06;;;-2.82;100.00
12666;BME280;58531;59.050;17.416;2023-03-26T00:12:34;99222.59;;;-2.85;100.00
12666;BME280;58531;59.050;17.416;2023-03-26T00:15:01;99219.22;;;-2.82;100.00
12666;BME280;58531;59.050;17.416;2023-03-26T00:17:28;99217.75;;;-2.87;100.00
12666;BME280;58531;59.050;17.416;2023-03-26T00:19:57;99219.63;;;-2.87;100.00
12666;BME280;58531;59.050;17.416;2023-03-26T00:22:24;99216.25;;;-2.88;100.00
12666;BME280;58531;59.050;17.416;2023-03-26T00:24:51;99222.59;;;-2.89;100.00
12666;BME280;58531;59.050;17.416;2023-03-26T00:27:21;99227.09;;;-2.89;100.00
12666;BME280;58531;59.050;17.416;2023-03-26T00:29:48;99228.22;;;-2.90;100.00
12666;BME280;58531;59.050;17.416;2023-03-26T00:32:15;99219.97;;;-2.89;100.00
12666;BME280;58531;59.050;17.416;2023-03-26T00:34:42;99227.44;;;-2.87;100.00
12666;BME280;58531;59.050;17.416;2023-03-26T00:37:12;99228.94;;;-2.90;100.00
12666;BME280;58531;59.050;17.416;2023-03-26T00:39:39;99223.34;;;-2.92;100.00
12666;BME280;58531;59.050;17.416;2023-03-26T00:42:07;99222.25;;;-2.94;100.00
12666;BME280;58531;59.050;17.416;2023-03-26T00:44:34;99230.44;;;-2.96;100.00
12666;BME280;58531;59.050;17.416;2023-03-26T00:47:01;99233.81;;;-2.95;100.00
12666;BME280;58531;59.050;17.416;2023-03-26T00:49:28;99243.50;;;-2.92;100.00
12666;BME280;58531;59.050;17.416;2023-03-26T00:51:55;99241.25;;;-2.90;100.00
12666;BME280;58531;59.050;17.416;2023-03-26T00:54:23;99242.03;;;-2.93;100.00
12666;BME280;58531;59.050;17.416;2023-03-26T00:56:51;99241.28;;;-2.97;100.00
12666;BME280;58531;59.050;17.416;2023-03-26T00:59:20;99240.53;;;-2.98;100.00
12666;BME280;58531;59.050;17.416;2023-03-26T01:01:48;99246.50;;;-2.90;100.00
12666;BME280;58531;59.050;17.416;2023-03-26T01:04:25;99245.75;;;-2.94;100.00
12666;BME280;58531;59.050;17.416;2023-03-26T01:06:55;99249.09;;;-2.94;100.00
12666;BME280;58531;59.050;17.416;2023-03-26T01:09:30;99248.38;;;-2.94;100.00
12666;BME280;58531;59.050;17.416;2023-03-26T01:11:59;99253.22;;;-2.96;100.00
12666;BME280;58531;59.050;17.416;2023-03-26T01:14:27;99254.69;;;-2.92;100.00
12666;BME280;58531;59.050;17.416;2023-03-26T01:16:56;99256.19;;;-2.94;100.00
12666;BME280;58531;59.050;17.416;2023-03-26T01:19:28;99253.56;;;-2.91;100.00
12666;BME280;58531;59.050;17.416;2023-03-26T01:21:58;99253.22;;;-2.96;100.00
12666;BME280;58531;59.050;17.416;2023-03-26T01:24:27;99250.97;;;-2.94;100.00
12666;BME280;58531;59.050;17.416;2023-03-26T01:27:07;99254.31;;;-2.90;100.00
12666;BME280;58531;59.050;17.416;2023-03-26T01:29:42;99248.38;;;-2.94;100.00
12666;BME280;58531;59.050;17.416;2023-03-26T01:32:23;99250.22;;;-2.95;100.00
12666;BME280;58531;59.050;17.416;2023-03-26T01:34:59;99259.19;;;-2.92;100.00
12666;BME280;58531;59.050;17.416;2023-03-26T01:37:38;99246.13;;;-2.99;100.00
12666;BME280;58531;59.050;17.416;2023-03-26T01:40:16;99259.94;;;-2.95;100.00
12666;BME280;58531;59.050;17.416;2023-03-26T01:42:49;99265.88;;;-2.95;100.00
12666;BME280;58531;59.050;17.416;2023-03-26T01:45:21;99259.53;;;-2.94;100.00
12666;BME280;58531;59.050;17.416;2023-03-26T01:47:50;99258.06;;;-2.95;100.00
12666;BME280;58531;59.050;17.416;2023-03-26T01:50:19;99259.94;;;-2.95;100.00
12666;BME280;58531;59.050;17.416;2023-03-26T01:52:46;99254.72;;;-2.95;100.00
12666;BME280;58531;59.050;17.416;2023-03-26T01:55:14;99260.31;;;-2.93;100.00
12666;BME280;58531;59.050;17.416;2023-03-26T01:57:49;99259.19;;;-2.92;100.00
12666;BME280;58531;59.050;17.416;2023-03-26T02:00:23;99260.66;;;-2.91;100.00
12666;BME280;58531;59.050;17.416;2023-03-26T02:03:11;99269.25;;;-2.87;100.00
12666;BME280;58531;59.050;17.416;2023-03-26T02:05:47;99267.00;;;-2.92;100.00
12666;BME280;58531;59.050;17.416;2023-03-26T02:08:21;99265.16;;;-2.95;100.00
12666;BME280;58531;59.050;17.416;2023-03-26T02:10:51;99268.88;;;-2.93;100.00
12666;BME280;58531;59.050;17.416;2023-03-26T02:13:21;99264.41;;;-2.96;100.00
12666;BME280;58531;59.050;17.416;2023-03-26T02:15:55;99273.00;;;-2.95;100.00
12666;BME280;58531;59.050;17.416;2023-03-26T02:18:21;99267.75;;;-2.95;100.00
12666;BME280;58531;59.050;17.416;2023-03-26T02:20:49;99263.66;;;-2.96;100.00
12666;BME280;58531;59.050;17.416;2023-03-26T02:23:18;99260.69;;;-2.98;100.00
12666;BME280;58531;59.050;17.416;2023-03-26T02:25:45;99259.19;;;-2.99;100.00
12666;BME280;58531;59.050;17.416;2023-03-26T02:28:16;99256.94;;;-2.94;100.00
12666;BME280;58531;59.050;17.416;2023-03-26T02:30:43;99259.56;;;-2.97;100.00
12666;BME280;58531;59.050;17.416;2023-03-26T02:33:11;99264.41;;;-2.96;100.00
12666;BME280;58531;59.050;17.416;2023-03-26T02:35:40;99261.03;;;-2.93;100.00
12666;BME280;58531;59.050;17.416;2023-03-26T02:38:10;99261.41;;;-2.94;100.00
12666;BME280;58531;59.050;17.416;2023-03-26T02:40:39;99257.31;;;-2.92;100.00
12666;BME280;58531;59.050;17.416;2023-03-26T02:43:06;99261.41;;;-2.94;100.00
12666;BME280;58531;59.050;17.416;2023-03-26T02:45:35;99256.56;;;-2.96;100.00
12666;BME280;58531;59.050;17.416;2023-03-26T02:48:02;99259.19;;;-2.92;100.00
12666;BME280;58531;59.050;17.416;2023-03-26T02:50:29;99256.19;;;-2.94;100.00
12666;BME280;58531;59.050;17.416;2023-03-26T02:52:57;99265.88;;;-2.95;100.00
12666;BME280;58531;59.050;17.416;2023-03-26T02:55:24;99262.91;;;-2.93;100.00
12666;BME280;58531;59.050;17.416;2023-03-26T02:57:51;99262.91;;;-2.93;100.00
12666;BME280;58531;59.050;17.416;2023-03-26T03:00:18;99265.53;;;-3.00;100.00
12666;BME280;58531;59.050;17.416;2023-03-26T03:02:48;99256.94;;;-3.01;100.00
12666;BME280;58531;59.050;17.416;2023-03-26T03:05:17;99261.78;;;-2.96;100.00
12666;BME280;58531;59.050;17.416;2023-03-26T03:07:44;99264.41;;;-2.99;100.00
12666;BME280;58531;59.050;17.416;2023-03-26T03:10:12;99269.28;;;-3.01;100.00
12666;BME280;58531;59.050;17.416;2023-03-26T03:12:40;99259.19;;;-2.99;100.00
12666;BME280;58531;59.050;17.416;2023-03-26T03:15:08;99261.44;;;-3.01;100.00
12666;BME280;58531;59.050;17.416;2023-03-26T03:17:35;99256.22;;;-3.01;100.00
12666;BME280;58531;59.050;17.416;2023-03-26T03:20:04;99266.28;;;-2.96;100.00
12666;BME280;58531;59.050;17.416;2023-03-26T03:22:33;99266.25;;;-2.93;100.00
12666;BME280;58531;59.050;17.416;2023-03-26T03:25:00;99273.34;;;-2.93;100.00
12666;BME280;58531;59.050;17.416;2023-03-26T03:27:27;99262.91;;;-2.93;100.00
12666;BME280;58531;59.050;17.416;2023-03-26T03:29:55;99258.44;;;-2.96;100.00
12666;BME280;58531;59.050;17.416;2023-03-26T03:32:23;99258.81;;;-2.94;100.00
12666;BME280;58531;59.050;17.416;2023-03-26T03:34:50;99264.41;;;-2.92;100.00
12666;BME280;58531;59.050;17.416;2023-03-26T03:37:18;99263.28;;;-2.91;100.00
12666;BME280;58531;59.050;17.416;2023-03-26T03:39:45;99266.66;;;-2.94;100.00
12666;BME280;58531;59.050;17.416;2023-03-26T03:42:12;99269.63;;;-2.96;100.00
12666;BME280;58531;59.050;17.416;2023-03-26T03:44:39;99267.41;;;-2.97;100.00
12666;BME280;58531;59.050;17.416;2023-03-26T03:47:07;99264.78;;;-2.97;100.00
12666;BME280;58531;59.050;17.416;2023-03-26T03:49:34;99268.88;;;-2.96;100.00
12666;BME280;58531;59.050;17.416;2023-03-26T03:52:01;99263.66;;;-3.00;100.00
12666;BME280;58531;59.050;17.416;2023-03-26T03:54:30;99276.72;;;-3.00;100.00
12666;BME280;58531;59.050;17.416;2023-03-26T03:56:57;99273.00;;;-3.02;100.00
12666;BME280;58531;59.050;17.416;2023-03-26T03:59:23;99279.34;;;-3.03;100.00
12666;BME280;58531;59.050;17.416;2023-03-26T04:01:50;99269.63;;;-3.03;100.00
12666;BME280;58531;59.050;17.416;2023-03-26T04:04:17;99267.03;;;-2.99;100.00
12666;BME280;58531;59.050;17.416;2023-03-26T04:06:45;99277.47;;;-2.99;100.00
12666;BME280;58531;59.050;17.416;2023-03-26T04:09:12;99283.06;;;-2.97;100.00
12666;BME280;58531;59.050;17.416;2023-03-26T04:11:40;99283.81;;;-2.93;100.00
12666;BME280;58531;59.050;17.416;2023-03-26T04:14:07;99290.13;;;-2.91;100.00
12666;BME280;58531;59.050;17.416;2023-03-26T04:16:34;99277.06;;;-2.91;100.00
12666;BME280;58531;59.050;17.416;2023-03-26T04:19:01;99277.44;;;-2.89;100.00
12666;BME280;58531;59.050;17.416;2023-03-26T04:21:30;99292.00;;;-2.88;100.00
12666;BME280;58531;59.050;17.416;2023-03-26T04:23:57;99288.63;;;-2.85;100.00
12666;BME280;58531;59.050;17.416;2023-03-26T04:26:26;99290.47;;;-2.82;100.00
12666;BME280;58531;59.050;17.416;2023-03-26T04:28:59;99276.66;;;-2.79;100.00
12666;BME280;58531;59.050;17.416;2023-03-26T04:31:27;99281.50;;;-2.77;100.00
12666;BME280;58531;59.050;17.416;2023-03-26T04:33:55;99295.69;;;-2.78;100.00
12666;BME280;58531;59.050;17.416;2023-03-26T04:36:28;99294.19;;;-2.76;100.00
12666;BME280;58531;59.050;17.416;2023-03-26T04:38:57;99284.13;;;-2.77;100.00
12666;BME280;58531;59.050;17.416;2023-03-26T04:41:29;99287.47;;;-2.73;100.00
12666;BME280;58531;59.050;17.416;2023-03-26T04:43:58;99285.97;;;-2.74;100.00
12666;BME280;58531;59.050;17.416;2023-03-26T04:46:26;99290.44;;;-2.71;100.00
12666;BME280;58531;59.050;17.416;2023-03-26T04:48:58;99290.06;;;-2.73;100.00
12666;BME280;58531;59.050;17.416;2023-03-26T04:51:26;99294.19;;;-2.72;100.00
12666;BME280;58531;59.050;17.416;2023-03-26T04:54:00;99291.94;;;-2.67;100.00
12666;BME280;58531;59.050;17.416;2023-03-26T04:56:36;99289.69;;;-2.65;100.00
12666;BME280;58531;59.050;17.416;2023-03-26T04:59:09;99291.53;;;-2.65;100.00
12666;BME280;58531;59.050;17.416;2023-03-26T05:01:39;99293.41;;;-2.62;100.00
12666;BME280;58531;59.050;17.416;2023-03-26T05:04:06;99296.75;;;-2.58;100.00
12666;BME280;58531;59.050;17.416;2023-03-26T05:06:33;99282.94;;;-2.55;100.00
12666;BME280;58531;59.050;17.416;2023-03-26T05:09:02;99288.13;;;-2.52;100.00
12666;BME280;58531;59.050;17.416;2023-03-26T05:11:29;99293.38;;;-2.48;100.00
12666;BME280;58531;59.050;17.416;2023-03-26T05:13:56;99282.91;;;-2.48;100.00
12666;BME280;58531;59.050;17.416;2023-03-26T05:16:24;99274.69;;;-2.43;100.00
12666;BME280;58531;59.050;17.416;2023-03-26T05:18:52;99277.63;;;-2.38;100.00
12666;BME280;58531;59.050;17.416;2023-03-26T05:21:21;99281.72;;;-2.33;100.00
12666;BME280;58531;59.050;17.416;2023-03-26T05:23:48;99279.84;;;-2.30;100.00
12666;BME280;58531;59.050;17.416;2023-03-26T05:26:15;99281.66;;;-2.27;100.00
12666;BME280;58531;59.050;17.416;2023-03-26T05:28:42;99282.00;;;-2.18;100.00
12666;BME280;58531;59.050;17.416;2023-03-26T05:31:09;99284.22;;;-2.09;100.00
12666;BME280;58531;59.050;17.416;2023-03-26T05:33:37;99290.19;;;-2.09;100.00
12666;BME280;58531;59.050;17.416;2023-03-26T05:36:07;99287.19;;;-2.07;100.00
12666;BME280;58531;59.050;17.416;2023-03-26T05:38:37;99278.22;;;-2.10;100.00
12666;BME280;58531;59.050;17.416;2023-03-26T05:41:07;99285.28;;;-2.00;100.00
12666;BME280;58531;59.050;17.416;2023-03-26T05:43:34;99292.34;;;-2.00;100.00
12666;BME280;58531;59.050;17.416;2023-03-26T05:46:01;99290.84;;;-1.94;100.00
12666;BME280;58531;59.050;17.416;2023-03-26T05:48:28;99298.34;;;-2.00;100.00
12666;BME280;58531;59.050;17.416;2023-03-26T05:50:57;99301.31;;;-1.98;100.00
12666;BME280;58531;59.050;17.416;2023-03-26T05:53:25;99303.59;;;-2.00;100.00
12666;BME280;58531;59.050;17.416;2023-03-26T05:55:53;99305.06;;;-2.02;100.00
12666;BME280;58531;59.050;17.416;2023-03-26T05:58:23;99311.78;;;-1.98;100.00
12666;BME280;58531;59.050;17.416;2023-03-26T06:00:56;99317.00;;;-1.91;100.00
12666;BME280;58531;59.050;17.416;2023-03-26T06:03:24;99311.75;;;-1.94;100.00
12666;BME280;58531;59.050;17.416;2023-03-26T06:05:51;99308.03;;;-1.93;100.00
12666;BME280;58531;59.050;17.416;2023-03-26T06:08:20;99311.34;;;-1.86;100.00
12666;BME280;58531;59.050;17.416;2023-03-26T06:10:47;99307.22;;;-1.80;100.00
12666;BME280;58531;59.050;17.416;2023-03-26T06:13:14;99309.38;;;-1.75;100.00
12666;BME280;58531;59.050;17.416;2023-03-26T06:15:42;99312.00;;;-1.71;100.00
12666;BME280;58531;59.050;17.416;2023-03-26T06:18:09;99318.28;;;-1.58;100.00
12666;BME280;58531;59.050;17.416;2023-03-26T06:20:36;99311.91;;;-1.61;100.00
12666;BME280;58531;59.050;17.416;2023-03-26T06:23:02;99313.69;;;-1.47;100.00
12666;BME280;58531;59.050;17.416;2023-03-26T06:25:31;99318.09;;;-1.34;100.00
12666;BME280;58531;59.050;17.416;2023-03-26T06:27:57;99315.38;;;-1.23;100.00
12666;BME280;58531;59.050;17.416;2023-03-26T06:30:27;99314.91;;;-1.12;100.00
12666;BME280;58531;59.050;17.416;2023-03-26T06:32:54;99322.59;;;-0.94;100.00
12666;BME280;58531;59.050;17.416;2023-03-26T06:35:21;99310.91;;;-0.86;100.00
12666;BME280;58531;59.050;17.416;2023-03-26T06:37:48;99317.59;;;-0.78;100.00
12666;BME280;58531;59.050;17.416;2023-03-26T06:40:15;99316.97;;;-0.56;100.00
12666;BME280;58531;59.050;17.416;2023-03-26T06:42:44;99319.94;;;-0.54;100.00
12666;BME280;58531;59.050;17.416;2023-03-26T06:45:10;99320.78;;;-0.30;100.00
12666;BME280;58531;59.050;17.416;2023-03-26T06:47:37;99316.28;;;-0.30;98.58
12666;BME280;58531;59.050;17.416;2023-03-26T06:50:05;99322.56;;;-0.24;99.08
12666;BME280;58531;59.050;17.416;2023-03-26T06:52:32;99327.53;;;-0.33;98.82
12666;BME280;58531;59.050;17.416;2023-03-26T06:54:59;99322.50;;;-0.50;97.73
12666;BME280;58531;59.050;17.416;2023-03-26T06:57:27;99325.00;;;-0.40;98.58
12666;BME280;58531;59.050;17.416;2023-03-26T06:59:56;99330.06;;;-0.56;97.82
12666;BME280;58531;59.050;17.416;2023-03-26T07:02:22;99331.78;;;-0.76;97.92
12666;BME280;58531;59.050;17.416;2023-03-26T07:04:49;99330.44;;;-0.94;98.82
12666;BME280;58531;59.050;17.416;2023-03-26T07:07:16;99333.97;;;-0.74;100.00
12666;BME280;58531;59.050;17.416;2023-03-26T07:09:46;99337.38;;;-0.74;98.88
12666;BME280;58531;59.050;17.416;2023-03-26T07:12:13;99337.72;;;-0.72;99.33
12666;BME280;58531;59.050;17.416;2023-03-26T07:14:39;99331.66;;;-0.65;97.30
12666;BME280;58531;59.050;17.416;2023-03-26T07:17:08;99342.91;;;-0.68;99.70
12666;BME280;58531;59.050;17.416;2023-03-26T07:19:35;99344.41;;;-0.67;99.59
12666;BME280;58531;59.050;17.416;2023-03-26T07:22:02;99345.47;;;-0.61;98.58
12666;BME280;58531;59.050;17.416;2023-03-26T07:24:29;99338.31;;;-0.57;99.29
12666;BME280;58531;59.050;17.416;2023-03-26T07:27:02;99337.19;;;-0.56;96.69
12666;BME280;58531;59.050;17.416;2023-03-26T07:29:34;99343.75;;;-0.75;95.39
12666;BME280;58531;59.050;17.416;2023-03-26T07:32:11;99330.28;;;-0.77;97.49
12666;BME280;58531;59.050;17.416;2023-03-26T07:34:47;99342.25;;;-0.76;98.59
12666;BME280;58531;59.050;17.416;2023-03-26T07:37:27;99339.44;;;-0.58;97.99
12666;BME280;58531;59.050;17.416;2023-03-26T07:39:59;99352.53;;;-0.55;95.96
12666;BME280;58531;59.050;17.416;2023-03-26T07:42:36;99349.63;;;-0.64;96.37
12666;BME280;58531;59.050;17.416;2023-03-26T07:45:16;99353.22;;;-0.51;96.45
12666;BME280;58531;59.050;17.416;2023-03-26T07:47:47;99361.34;;;-0.38;94.95
12666;BME280;58531;59.050;17.416;2023-03-26T07:50:19;99357.72;;;-0.51;95.24
12666;BME280;58531;59.050;17.416;2023-03-26T07:52:47;99356.25;;;-0.52;95.43
12666;BME280;58531;59.050;17.416;2023-03-26T07:55:15;99356.66;;;-0.57;95.30
12666;BME280;58531;59.050;17.416;2023-03-26T07:57:51;99357.44;;;-0.60;96.39
12666;BME280;58531;59.050;17.416;2023-03-26T08:00:23;99357.72;;;-0.51;95.32
12666;BME280;58531;59.050;17.416;2023-03-26T08:03:20;99358.22;;;-0.63;96.53
12666;BME280;58531;59.050;17.416;2023-03-26T08:05:56;99362.44;;;-0.73;95.53
12666;BME280;58531;59.050;17.416;2023-03-26T08:08:31;99369.19;;;-0.75;95.39
12666;BME280;58531;59.050;17.416;2023-03-26T08:11:20;99369.91;;;-0.71;95.88
12666;BME280;58531;59.050;17.416;2023-03-26T08:13:59;99364.75;;;-0.78;95.96
12666;BME280;58531;59.050;17.416;2023-03-26T08:16:34;99366.13;;;-0.67;96.20
12666;BME280;58531;59.050;17.416;2023-03-26T08:19:13;99362.63;;;-0.53;96.00
12666;BME280;58531;59.050;17.416;2023-03-26T08:21:51;99362.63;;;-0.53;96.45
12666;BME280;58531;59.050;17.416;2023-03-26T08:24:21;99362.97;;;-0.51;94.54
12666;BME280;58531;59.050;17.416;2023-03-26T08:26:58;99361.47;;;-0.52;95.21
12666;BME280;58531;59.050;17.416;2023-03-26T08:29:34;99367.78;;;-0.46;94.96
12666;BME280;58531;59.050;17.416;2023-03-26T08:32:07;99370.69;;;-0.37;96.72
12666;BME280;58531;59.050;17.416;2023-03-26T08:34:39;99367.50;;;-0.22;94.10
12666;BME280;58531;59.050;17.416;2023-03-26T08:37:06;99375.31;;;-0.48;93.30
12666;BME280;58531;59.050;17.416;2023-03-26T08:39:35;99369.69;;;-0.50;94.42
12666;BME280;58531;59.050;17.416;2023-03-26T08:42:34;99376.56;;;-0.63;94.35
12666;BME280;58531;59.050;17.416;2023-03-26T08:45:36;99366.19;;;-0.74;95.16
12666;BME280;58531;59.050;17.416;2023-03-26T08:51:32;99365.66;;;-0.58;93.33
12666;BME280;58531;59.050;17.416;2023-03-26T08:54:17;99374.28;;;-0.58;94.85
12666;BME280;58531;59.050;17.416;2023-03-26T08:56:52;99371.31;;;-0.60;95.45
12666;BME280;58531;59.050;17.416;2023-03-26T09:05:44;99365.81;;;-0.35;93.04
12666;BME280;58531;59.050;17.416;2023-03-26T09:15:05;99368.97;;;0.12;91.20
12666;BME280;58531;59.050;17.416;2023-03-26T09:18:11;99380.31;;;0.32;90.30
12666;BME280;58531;59.050;17.416;2023-03-26T09:20:55;99373.09;;;0.40;90.48
12666;BME280;58531;59.050;17.416;2023-03-26T09:26:45;99364.69;;;-0.04;91.99
12666;BME280;58531;59.050;17.416;2023-03-26T09:32:42;99361.56;;;0.34;90.25
12666;BME280;58531;59.050;17.416;2023-03-26T09:35:36;99370.47;;;0.40;90.11
12666;BME280;58531;59.050;17.416;2023-03-26T09:38:10;99370.59;;;0.56;88.32
12666;BME280;58531;59.050;17.416;2023-03-26T09:40:49;99376.84;;;0.65;89.34
12666;BME280;58531;59.050;17.416;2023-03-26T09:43:41;99380.22;;;0.39;89.30
12666;BME280;58531;59.050;17.416;2023-03-26T09:46:23;99381.66;;;0.17;88.04
12666;BME280;58531;59.050;17.416;2023-03-26T09:49:10;99384.38;;;0.37;88.62
12666;BME280;58531;59.050;17.416;2023-03-26T09:54:54;99380.75;;;0.27;88.83
12666;BME280;58531;59.050;17.416;2023-03-26T09:57:39;99377.31;;;0.60;88.94
12666;BME280;58531;59.050;17.416;2023-03-26T10:00:26;99378.84;;;1.04;89.03
12666;BME280;58531;59.050;17.416;2023-03-26T10:03:11;99382.47;;;1.55;85.46
12666;BME280;58531;59.050;17.416;2023-03-26T10:05:58;99385.44;;;1.15;86.01
12666;BME280;58531;59.050;17.416;2023-03-26T10:08:56;99390.03;;;1.11;86.28
12666;BME280;58531;59.050;17.416;2023-03-26T10:11:44;99389.09;;;0.75;87.01
12666;BME280;58531;59.050;17.416;2023-03-26T10:14:19;99385.81;;;0.68;88.18
12666;BME280;58531;59.050;17.416;2023-03-26T10:17:01;99398.47;;;0.50;87.74
12666;BME280;58531;59.050;17.416;2023-03-26T10:19:41;99391.75;;;0.45;90.32
12666;BME280;58531;59.050;17.416;2023-03-26T10:22:28;99388.97;;;0.29;89.48
12666;BME280;58531;59.050;17.416;2023-03-26T10:25:14;99391.13;;;0.08;90.57
12666;BME280;58531;59.050;17.416;2023-03-26T10:27:51;99394.53;;;0.05;90.65
12666;BME280;58531;59.050;17.416;2023-03-26T10:30:36;99390.03;;;0.05;89.87
12666;BME280;58531;59.050;17.416;2023-03-26T10:33:21;99398.28;;;0.07;93.13
12666;BME280;58531;59.050;17.416;2023-03-26T10:36:01;99405.28;;;0.17;92.64
12666;BME280;58531;59.050;17.416;2023-03-26T10:38:47;99395.38;;;-0.02;90.32
12666;BME280;58531;59.050;17.416;2023-03-26T10:41:21;99391.00;;;-0.11;91.60
12666;BME280;58531;59.050;17.416;2023-03-26T10:44:03;99401.25;;;-0.24;91.99
12666;BME280;58531;59.050;17.416;2023-03-26T10:49:59;99395.72;;;-0.29;91.90
12666;BME280;58531;59.050;17.416;2023-03-26T10:52:33;99399.56;;;-0.41;92.76
12666;BME280;58531;59.050;17.416;2023-03-26T10:55:09;99394.38;;;-0.48;93.71
12666;BME280;58531;59.050;17.416;2023-03-26T10:57:42;99399.59;;;-0.44;93.59
12666;BME280;58531;59.050;17.416;2023-03-26T11:00:15;99396.50;;;-0.32;94.32
12666;BME280;58531;59.050;17.416;2023-03-26T11:02:46;99402.53;;;-0.39;93.71
12666;BME280;58531;59.050;17.416;2023-03-26T11:05:26;99396.94;;;-0.41;93.68
12666;BME280;58531;59.050;17.416;2023-03-26T11:08:03;99396.06;;;-0.27;94.82
12666;BME280;58531;59.050;17.416;2023-03-26T11:10:41;99391.06;;;-0.18;94.14
12666;BME280;58531;59.050;17.416;2023-03-26T11:13:16;99399.22;;;-0.09;92.63
12666;BME280;58531;59.050;17.416;2023-03-26T11:15:49;99404.88;;;-0.11;93.62
12666;BME280;58531;59.050;17.416;2023-03-26T11:18:21;99403.72;;;-0.10;93.21
12666;BME280;58531;59.050;17.416;2023-03-26T11:20:56;99397.16;;;-0.25;93.09
12666;BME280;58531;59.050;17.416;2023-03-26T11:23:33;99400.19;;;-0.30;93.96
12666;BME280;58531;59.050;17.416;2023-03-26T11:26:06;99402.09;;;-0.30;94.89
12666;BME280;58531;59.050;17.416;2023-03-26T11:28:48;99404.00;;;-0.34;93.92
12666;BME280;58531;59.050;17.416;2023-03-26T11:31:23;99402.53;;;-0.35;94.73
12666;BME280;58531;59.050;17.416;2023-03-26T11:33:55;99413.41;;;-0.03;94.98
12666;BME280;58531;59.050;17.416;2023-03-26T11:36:29;99415.94;;;0.03;93.96
12666;BME280;58531;59.050;17.416;2023-03-26T11:39:02;99401.38;;;-0.01;92.87
12666;BME280;58531;59.050;17.416;2023-03-26T11:41:31;99416.53;;;-0.15;92.70
12666;BME280;58531;59.050;17.416;2023-03-26T11:44:02;99413.63;;;-0.24;94.35
12666;BME280;58531;59.050;17.416;2023-03-26T11:46:41;99417.00;;;-0.24;94.07
12666;BME280;58531;59.050;17.416;2023-03-26T11:49:11;99411.19;;;-0.05;95.32
12666;BME280;58531;59.050;17.416;2023-03-26T11:51:41;99418.91;;;0.05;93.36
12666;BME280;58531;59.050;17.416;2023-03-26T11:54:10;99414.81;;;0.01;94.28
12666;BME280;58531;59.050;17.416;2023-03-26T11:56:41;99424.09;;;0.12;93.99
12666;BME280;58531;59.050;17.416;2023-03-26T11:59:13;99427.41;;;0.16;93.08
12666;BME280;58531;59.050;17.416;2023-03-26T12:01:43;99433.53;;;0.06;94.40
12666;BME280;58531;59.050;17.416;2023-03-26T12:04:15;99434.94;;;0.14;93.66
12666;BME280;58531;59.050;17.416;2023-03-26T12:06:52;99433.97;;;0.01;93.92
12666;BME280;58531;59.050;17.416;2023-03-26T12:09:21;99427.66;;;-0.04;94.34
12666;BME280;58531;59.050;17.416;2023-03-26T12:11:48;99432.19;;;-0.08;93.77
12666;BME280;58531;59.050;17.416;2023-03-26T12:14:20;99431.13;;;-0.14;94.56
12666;BME280;58531;59.050;17.416;2023-03-26T12:17:03;99433.81;;;-0.18;94.00
12666;BME280;58531;59.050;17.416;2023-03-26T12:19:36;99436.31;;;-0.07;95.29
12666;BME280;58531;59.050;17.416;2023-03-26T12:22:10;99432.81;;;0.02;94.70
12666;BME280;58531;59.050;17.416;2023-03-26T12:25:00;99433.19;;;0.01;94.14
12666;BME280;58531;59.050;17.416;2023-03-26T12:27:27;99432.03;;;0.05;93.62
12666;BME280;58531;59.050;17.416;2023-03-26T12:29:58;99431.88;;;0.19;93.78
12666;BME280;58531;59.050;17.416;2023-03-26T12:32:38;99435.56;;;0.25;92.20
12666;BME280;58531;59.050;17.416;2023-03-26T12:35:14;99428.25;;;0.40;91.96
12666;BME280;58531;59.050;17.416;2023-03-26T12:37:45;99432.28;;;0.44;91.34
12666;BME280;58531;59.050;17.416;2023-03-26T12:40:27;99430.25;;;0.29;90.48
12666;BME280;58531;59.050;17.416;2023-03-26T12:42:56;99423.44;;;0.31;91.18
12666;BME280;58531;59.050;17.416;2023-03-26T12:45:28;99428.00;;;0.57;89.68
12666;BME280;58531;59.050;17.416;2023-03-26T12:47:56;99436.94;;;0.63;90.36
12666;BME280;58531;59.050;17.416;2023-03-26T12:50:28;99431.56;;;0.70;89.74
12666;BME280;58531;59.050;17.416;2023-03-26T12:53:16;99428.63;;;0.91;88.31
12666;BME280;58531;59.050;17.416;2023-03-26T12:55:51;99425.66;;;0.89;88.03
12666;BME280;58531;59.050;17.416;2023-03-26T12:58:34;99437.69;;;1.13;88.55
12666;BME280;58531;59.050;17.416;2023-03-26T13:01:09;99430.22;;;0.85;87.14
12666;BME280;58531;59.050;17.416;2023-03-26T13:03:58;99422.44;;;0.78;88.62
12666;BME280;58531;59.050;17.416;2023-03-26T13:06:38;99413.41;;;0.79;88.34
12666;BME280;58531;59.050;17.416;2023-03-26T13:12:14;99427.59;;;0.85;89.35
12666;BME280;58531;59.050;17.416;2023-03-26T13:14:54;99424.25;;;0.81;88.88
12666;BME280;58531;59.050;17.416;2023-03-26T13:17:28;99430.03;;;0.73;90.39
12666;BME280;58531;59.050;17.416;2023-03-26T13:20:01;99430.31;;;0.78;91.65
12666;BME280;58531;59.050;17.416;2023-03-26T13:22:37;99435.88;;;0.84;90.21
12666;BME280;58531;59.050;17.416;2023-03-26T13:25:17;99427.69;;;0.78;88.83
12666;BME280;58531;59.050;17.416;2023-03-26T13:27:54;99430.53;;;0.64;87.16
12666;BME280;58531;59.050;17.416;2023-03-26T13:30:31;99425.97;;;0.68;87.77
12666;BME280;58531;59.050;17.416;2023-03-26T13:33:27;99426.78;;;0.65;85.96
12666;BME280;58531;59.050;17.416;2023-03-26T13:36:17;99431.13;;;0.75;85.86
12666;BME280;58531;59.050;17.416;2023-03-26T13:38:55;99434.56;;;0.95;86.67
12666;BME280;58531;59.050;17.416;2023-03-26T13:41:36;99432.97;;;1.01;83.48
12666;BME280;58531;59.050;17.416;2023-03-26T13:44:15;99431.72;;;1.09;84.37
12666;BME280;58531;59.050;17.416;2023-03-26T13:46:50;99429.50;;;1.08;83.09